createdAt,value
2017-03-14T00:01:02.348Z,1009.15
2017-03-14T00:02:13.109Z,1009.17
2017-03-14T00:03:23.474Z,1009.16
2017-03-14T00:04:33.826Z,1009.16
2017-03-14T00:05:44.592Z,1009.17
2017-03-14T00:06:54.976Z,1009.15
2017-03-14T00:08:05.334Z,1009.16
2017-03-14T00:09:16.106Z,1009.1
2017-03-14T00:10:26.878Z,1009.17
2017-03-14T00:11:37.630Z,1009.23
2017-03-14T00:12:48.235Z,1009.2
2017-03-14T00:13:59.034Z,1009.28
2017-03-14T00:15:09.830Z,1009.21
2017-03-14T00:16:20.602Z,1009.27
2017-03-14T00:17:31.389Z,1009.28
2017-03-14T00:18:41.768Z,1009.32
2017-03-14T00:19:52.149Z,1009.31
2017-03-14T00:21:02.921Z,1009.36
2017-03-14T00:22:13.288Z,1009.3
2017-03-14T00:23:24.067Z,1009.35
2017-03-14T00:24:34.885Z,1009.34
2017-03-14T00:25:45.690Z,1009.39
2017-03-14T00:26:56.057Z,1009.35
2017-03-14T00:28:06.836Z,1009.42
2017-03-14T00:29:17.605Z,1009.46
2017-03-14T00:30:28.409Z,1009.43
2017-03-14T00:31:39.194Z,1009.4
2017-03-14T00:32:49.948Z,1009.43
2017-03-14T00:34:00.722Z,1009.41
2017-03-14T00:35:11.484Z,1009.44
2017-03-14T00:36:21.833Z,1009.47
2017-03-14T00:37:32.608Z,1009.49
2017-03-14T00:38:43.377Z,1009.48
2017-03-14T00:39:54.140Z,1009.47
2017-03-14T00:41:04.523Z,1009.47
2017-03-14T00:42:14.479Z,1009.49
2017-03-14T00:43:24.836Z,1009.48
2017-03-14T00:44:35.610Z,1009.49
2017-03-14T00:45:46.373Z,1009.48
2017-03-14T00:46:57.141Z,1009.46
2017-03-14T00:48:07.510Z,1009.47
2017-03-14T00:49:18.291Z,1009.48
2017-03-14T00:50:29.095Z,1009.47
2017-03-14T00:51:39.865Z,1009.45
2017-03-14T00:52:50.624Z,1009.42
2017-03-14T00:54:00.993Z,1009.46
2017-03-14T00:55:11.373Z,1009.43
2017-03-14T00:56:22.124Z,1009.42
2017-03-14T00:57:32.891Z,1009.42
2017-03-14T00:58:43.668Z,1009.41
2017-03-14T00:59:54.462Z,1009.4
2017-03-14T01:01:05.219Z,1009.42
2017-03-14T01:02:15.988Z,1009.38
2017-03-14T01:03:26.350Z,1009.41
2017-03-14T01:04:36.755Z,1009.39
2017-03-14T01:05:46.719Z,1009.38
2017-03-14T01:06:57.486Z,1009.37
2017-03-14T01:08:08.254Z,1009.37
2017-03-14T01:09:19.045Z,1009.38
2017-03-14T01:10:29.817Z,1009.4
2017-03-14T01:11:40.598Z,1009.39
2017-03-14T01:12:51.356Z,1009.38
2017-03-14T01:14:02.114Z,1009.38
2017-03-14T01:15:12.861Z,1009.4
2017-03-14T01:16:23.242Z,1009.41
2017-03-14T01:17:33.616Z,1009.44
2017-03-14T01:18:44.398Z,1009.42
2017-03-14T01:19:54.784Z,1009.43
2017-03-14T01:21:05.573Z,1009.46
2017-03-14T01:22:16.319Z,1009.42
2017-03-14T01:23:27.068Z,1009.4
2017-03-14T01:24:37.842Z,1009.42
2017-03-14T01:25:48.638Z,1009.39
2017-03-14T01:26:59.418Z,1009.4
2017-03-14T01:28:09.427Z,1009.42
2017-03-14T01:29:19.802Z,1009.4
2017-03-14T01:30:30.564Z,1009.37
2017-03-14T01:31:41.320Z,1009.34
2017-03-14T01:32:52.112Z,1009.35
2017-03-14T01:34:02.084Z,1009.34
2017-03-14T01:35:12.850Z,1009.31
2017-03-14T01:36:23.597Z,1009.31
2017-03-14T01:37:34.009Z,1009.32
2017-03-14T01:38:44.375Z,1009.34
2017-03-14T01:39:55.158Z,1009.36
2017-03-14T01:41:05.915Z,1009.33
2017-03-14T01:42:16.696Z,1009.36
2017-03-14T01:43:26.670Z,1009.37
2017-03-14T01:44:37.452Z,1009.36
2017-03-14T01:45:48.218Z,1009.34
2017-03-14T01:46:58.990Z,1009.41
2017-03-14T01:48:09.773Z,1009.39
2017-03-14T01:49:20.143Z,1009.41
2017-03-14T01:50:30.914Z,1009.4
2017-03-14T01:51:41.683Z,1009.42
2017-03-14T01:52:52.052Z,1009.4
2017-03-14T01:54:02.829Z,1009.38
2017-03-14T01:55:13.611Z,1009.37
2017-03-14T01:56:23.984Z,1009.36
2017-03-14T01:57:34.739Z,1009.33
2017-03-14T01:58:45.496Z,1009.33
2017-03-14T01:59:56.266Z,1009.36
2017-03-14T02:01:06.644Z,1009.32
2017-03-14T02:02:17.408Z,1009.31
2017-03-14T02:03:28.231Z,1009.34
2017-03-14T02:04:39.004Z,1009.34
2017-03-14T02:05:49.759Z,1009.29
2017-03-14T02:07:00.528Z,1009.3
2017-03-14T02:08:10.883Z,1009.33
2017-03-14T02:09:21.654Z,1009.35
2017-03-14T02:10:32.413Z,1009.28
2017-03-14T02:11:42.793Z,1009.33
2017-03-14T02:12:53.551Z,1009.32
2017-03-14T02:14:04.318Z,1009.33
2017-03-14T02:15:15.093Z,1009.29
2017-03-14T02:16:25.866Z,1009.3
2017-03-14T02:17:36.637Z,1009.26
2017-03-14T02:18:47.414Z,1009.32
2017-03-14T02:19:58.177Z,1009.31
2017-03-14T02:21:08.924Z,1009.31
2017-03-14T02:22:19.691Z,1009.3
2017-03-14T02:23:30.496Z,1009.33
2017-03-14T02:24:40.856Z,1009.34
2017-03-14T02:25:51.616Z,1009.38
2017-03-14T02:27:02.010Z,1009.35
2017-03-14T02:28:12.763Z,1009.41
2017-03-14T02:29:23.123Z,1009.41
2017-03-14T02:30:33.887Z,1009.42
2017-03-14T02:31:44.678Z,1009.41
2017-03-14T02:32:55.017Z,1009.44
2017-03-14T02:34:04.596Z,1009.41
2017-03-14T02:35:15.339Z,1009.43
2017-03-14T02:36:25.712Z,1009.4
2017-03-14T02:37:36.463Z,1009.42
2017-03-14T02:38:47.240Z,1009.4
2017-03-14T02:39:58.010Z,1009.37
2017-03-14T02:41:08.781Z,1009.39
2017-03-14T02:42:19.548Z,1009.4
2017-03-14T02:43:30.299Z,1009.41
2017-03-14T02:44:41.069Z,1009.39
2017-03-14T02:45:51.843Z,1009.4
2017-03-14T02:47:02.620Z,1009.42
2017-03-14T02:48:13.367Z,1009.41
2017-03-14T02:49:24.127Z,1009.43
2017-03-14T02:50:34.887Z,1009.41
2017-03-14T02:51:45.643Z,1009.47
2017-03-14T02:52:56.439Z,1009.4
2017-03-14T02:54:07.032Z,1009.41
2017-03-14T02:55:17.417Z,1009.39
2017-03-14T02:56:28.173Z,1009.43
2017-03-14T02:57:38.959Z,1009.4
2017-03-14T02:58:49.347Z,1009.44
2017-03-14T03:00:00.102Z,1009.44
2017-03-14T03:01:10.896Z,1009.45
2017-03-14T03:32:05.997Z,1009.52
2017-03-14T03:33:16.751Z,1009.53
2017-03-14T03:34:27.105Z,1009.51
2017-03-14T03:35:37.459Z,1009.5
2017-03-14T03:36:48.234Z,1009.5
2017-03-14T03:37:58.986Z,1009.48
2017-03-14T03:39:09.747Z,1009.49
2017-03-14T03:40:20.523Z,1009.47
2017-03-14T03:41:31.273Z,1009.47
2017-03-14T03:42:41.646Z,1009.45
2017-03-14T03:43:52.398Z,1009.48
2017-03-14T03:45:03.162Z,1009.48
2017-03-14T03:46:13.921Z,1009.45
2017-03-14T03:47:24.674Z,1009.45
2017-03-14T03:48:35.437Z,1009.47
2017-03-14T03:49:45.818Z,1009.46
2017-03-14T03:50:56.598Z,1009.43
2017-03-14T03:52:07.368Z,1009.45
2017-03-14T03:53:18.161Z,1009.4
2017-03-14T03:54:28.910Z,1009.44
2017-03-14T03:55:39.660Z,1009.46
2017-03-14T03:56:49.643Z,1009.45
2017-03-14T03:58:00.393Z,1009.45
2017-03-14T03:59:11.176Z,1009.48
2017-03-14T04:00:21.946Z,1009.43
2017-03-14T04:01:32.708Z,1009.46
2017-03-14T04:02:43.471Z,1009.48
2017-03-14T04:03:54.077Z,1009.46
2017-03-14T04:05:04.835Z,1009.45
2017-03-14T04:06:15.606Z,1009.47
2017-03-14T04:07:26.388Z,1009.48
2017-03-14T04:08:37.160Z,1009.51
2017-03-14T04:09:47.926Z,1009.52
2017-03-14T04:10:58.674Z,1009.57
2017-03-14T04:12:09.032Z,1009.55
2017-03-14T04:13:19.771Z,1009.6
2017-03-14T04:14:30.560Z,1009.53
2017-03-14T04:15:41.318Z,1009.52
2017-03-14T04:16:52.083Z,1009.5
2017-03-14T04:18:02.460Z,1009.48
2017-03-14T04:19:13.216Z,1009.49
2017-03-14T04:20:23.987Z,1009.48
2017-03-14T04:21:34.754Z,1009.49
2017-03-14T04:22:45.515Z,1009.52
2017-03-14T04:23:56.281Z,1009.47
2017-03-14T04:25:07.043Z,1009.5
2017-03-14T04:26:17.794Z,1009.48
2017-03-14T04:27:28.554Z,1009.5
2017-03-14T04:28:38.926Z,1009.54
2017-03-14T04:29:49.692Z,1009.55
2017-03-14T04:31:00.463Z,1009.54
2017-03-14T04:32:11.219Z,1009.54
2017-03-14T04:33:21.976Z,1009.46
2017-03-14T04:34:32.737Z,1009.47
2017-03-14T04:35:43.499Z,1009.47
2017-03-14T04:36:54.262Z,1009.47
2017-03-14T04:38:05.031Z,1009.47
2017-03-14T04:39:15.803Z,1009.49
2017-03-14T04:40:26.582Z,1009.51
2017-03-14T04:41:37.331Z,1009.47
2017-03-14T04:42:48.104Z,1009.5
2017-03-14T04:43:58.080Z,1009.48
2017-03-14T04:45:08.875Z,1009.48
2017-03-14T04:46:19.659Z,1009.49
2017-03-14T04:47:30.417Z,1009.54
2017-03-14T04:48:41.175Z,1009.49
2017-03-14T04:49:51.942Z,1009.47
2017-03-14T04:51:02.328Z,1009.49
2017-03-14T04:52:12.710Z,1009.51
2017-03-14T04:53:23.085Z,1009.49
2017-03-14T04:54:33.843Z,1009.46
2017-03-14T04:55:44.604Z,1009.49
2017-03-14T04:56:55.371Z,1009.48
2017-03-14T04:58:05.738Z,1009.51
2017-03-14T04:59:16.106Z,1009.49
2017-03-14T05:00:26.878Z,1009.52
2017-03-14T05:01:37.247Z,1009.48
2017-03-14T05:02:47.613Z,1009.52
2017-03-14T05:03:57.975Z,1009.46
2017-03-14T05:05:08.734Z,1009.55
2017-03-14T05:06:19.512Z,1009.55
2017-03-14T05:07:30.256Z,1009.57
2017-03-14T05:08:40.625Z,1009.54
2017-03-14T05:09:50.985Z,1009.56
2017-03-14T05:11:01.364Z,1009.58
2017-03-14T05:12:11.759Z,1009.61
2017-03-14T05:13:22.519Z,1009.64
2017-03-14T05:14:33.295Z,1009.63
2017-03-14T05:15:43.676Z,1009.64
2017-03-14T05:16:54.066Z,1009.63
2017-03-14T05:18:04.838Z,1009.62
2017-03-14T05:19:15.612Z,1009.66
2017-03-14T05:20:26.357Z,1009.67
2017-03-14T05:21:37.097Z,1009.65
2017-03-14T05:22:47.878Z,1009.65
2017-03-14T05:23:58.276Z,1009.68
2017-03-14T05:25:09.040Z,1009.68
2017-03-14T05:26:19.837Z,1009.67
2017-03-14T05:27:30.601Z,1009.7
2017-03-14T05:28:40.961Z,1009.71
2017-03-14T05:29:51.314Z,1009.72
2017-03-14T05:31:02.086Z,1009.72
2017-03-14T05:32:12.474Z,1009.74
2017-03-14T05:33:23.234Z,1009.72
2017-03-14T05:34:34.016Z,1009.76
2017-03-14T05:35:44.768Z,1009.73
2017-03-14T05:36:55.132Z,1009.71
2017-03-14T05:38:05.488Z,1009.71
2017-03-14T05:39:15.856Z,1009.72
2017-03-14T05:40:26.202Z,1009.71
2017-03-14T05:41:36.980Z,1009.7
2017-03-14T05:42:47.377Z,1009.68
2017-03-14T05:43:57.371Z,1009.68
2017-03-14T05:45:08.125Z,1009.69
2017-03-14T05:46:18.878Z,1009.67
2017-03-14T05:47:29.632Z,1009.64
2017-03-14T05:48:40.393Z,1009.66
2017-03-14T05:49:51.179Z,1009.68
2017-03-14T05:51:01.550Z,1009.69
2017-03-14T05:52:12.316Z,1009.69
2017-03-14T05:53:22.278Z,1009.7
2017-03-14T05:54:33.031Z,1009.71
2017-03-14T05:55:43.803Z,1009.69
2017-03-14T05:56:53.760Z,1009.73
2017-03-14T05:58:04.530Z,1009.74
2017-03-14T05:59:15.286Z,1009.77
2017-03-14T06:00:25.683Z,1009.73
2017-03-14T06:01:36.695Z,1009.76
2017-03-14T06:02:47.055Z,1009.69
2017-03-14T06:03:57.419Z,1009.73
2017-03-14T06:05:08.169Z,1009.71
2017-03-14T06:06:18.922Z,1009.74
2017-03-14T06:07:29.696Z,1009.66
2017-03-14T06:08:40.460Z,1009.67
2017-03-14T06:09:51.214Z,1009.66
2017-03-14T06:11:01.991Z,1009.67
2017-03-14T06:12:12.754Z,1009.66
2017-03-14T06:13:23.536Z,1009.64
2017-03-14T06:14:34.290Z,1009.6
2017-03-14T06:15:45.077Z,1009.64
2017-03-14T06:16:55.833Z,1009.64
2017-03-14T06:18:06.592Z,1009.62
2017-03-14T06:19:17.372Z,1009.66
2017-03-14T06:20:28.157Z,1009.62
2017-03-14T06:21:38.939Z,1009.63
2017-03-14T06:22:49.694Z,1009.62
2017-03-14T06:24:00.484Z,1009.64
2017-03-14T06:25:11.294Z,1009.66
2017-03-14T06:26:21.666Z,1009.71
2017-03-14T06:27:32.428Z,1009.71
2017-03-14T06:28:43.219Z,1009.72
2017-03-14T06:29:53.984Z,1009.75
2017-03-14T06:31:04.760Z,1009.76
2017-03-14T06:32:15.538Z,1009.78
2017-03-14T06:33:26.330Z,1009.85
2017-03-14T06:34:36.689Z,1009.83
2017-03-14T06:35:47.441Z,1009.84
2017-03-14T06:36:58.205Z,1009.8
2017-03-14T06:38:08.976Z,1009.86
2017-03-14T06:39:19.721Z,1009.87
2017-03-14T06:40:30.496Z,1009.89
2017-03-14T06:41:41.278Z,1009.88
2017-03-14T06:42:51.661Z,1009.92
2017-03-14T06:44:02.441Z,1009.92
2017-03-14T06:45:13.215Z,1009.92
2017-03-14T06:46:24.019Z,1009.94
2017-03-14T06:47:34.814Z,1009.97
2017-03-14T06:48:45.606Z,1009.99
2017-03-14T06:49:56.605Z,1009.93
2017-03-14T06:51:06.990Z,1009.98
2017-03-14T06:52:17.778Z,1009.99
2017-03-14T06:53:28.141Z,1010.01
2017-03-14T06:54:38.955Z,1010
2017-03-14T06:55:49.720Z,1010.02
2017-03-14T06:57:00.494Z,1010.05
2017-03-14T06:58:10.883Z,1010.08
2017-03-14T06:59:21.664Z,1010.11
2017-03-14T07:00:32.426Z,1010.14
2017-03-14T07:01:43.193Z,1010.12
2017-03-14T07:02:53.955Z,1010.14
2017-03-14T07:04:04.722Z,1010.16
2017-03-14T07:05:15.488Z,1010.16
2017-03-14T07:06:25.473Z,1010.17
2017-03-14T07:07:36.246Z,1010.2
2017-03-14T07:08:47.051Z,1010.2
2017-03-14T07:09:57.816Z,1010.2
2017-03-14T07:11:08.586Z,1010.21
2017-03-14T07:12:19.350Z,1010.22
2017-03-14T07:13:30.121Z,1010.26
2017-03-14T07:14:40.894Z,1010.29
2017-03-14T07:15:51.237Z,1010.29
2017-03-14T07:17:02.013Z,1010.3
2017-03-14T07:18:12.776Z,1010.36
2017-03-14T07:19:23.143Z,1010.35
2017-03-14T07:20:33.903Z,1010.36
2017-03-14T07:21:44.684Z,1010.31
2017-03-14T07:22:55.049Z,1010.36
2017-03-14T07:24:05.818Z,1010.35
2017-03-14T07:25:16.582Z,1010.34
2017-03-14T07:26:27.344Z,1010.37
2017-03-14T07:27:38.114Z,1010.41
2017-03-14T07:28:48.891Z,1010.46
2017-03-14T07:29:59.668Z,1010.45
2017-03-14T07:31:10.071Z,1010.48
2017-03-14T07:32:20.852Z,1010.43
2017-03-14T07:33:31.631Z,1010.42
2017-03-14T07:34:42.006Z,1010.47
2017-03-14T07:35:52.783Z,1010.5
2017-03-14T07:37:03.538Z,1010.5
2017-03-14T07:38:14.305Z,1010.49
2017-03-14T07:39:25.087Z,1010.54
2017-03-14T07:40:35.854Z,1010.55
2017-03-14T07:41:46.642Z,1010.57
2017-03-14T07:42:57.436Z,1010.57
2017-03-14T07:44:08.205Z,1010.59
2017-03-14T07:45:19.006Z,1010.57
2017-03-14T07:46:29.776Z,1010.58
2017-03-14T07:47:40.538Z,1010.61
2017-03-14T07:48:50.917Z,1010.57
2017-03-14T07:50:01.699Z,1010.58
2017-03-14T07:51:12.470Z,1010.58
2017-03-14T07:52:23.247Z,1010.56
2017-03-14T07:53:34.039Z,1010.64
2017-03-14T07:54:44.010Z,1010.59
2017-03-14T07:55:54.760Z,1010.6
2017-03-14T07:57:05.534Z,1010.6
2017-03-14T07:58:16.304Z,1010.61
2017-03-14T07:59:27.073Z,1010.63
2017-03-14T08:00:37.844Z,1010.65
2017-03-14T08:01:48.620Z,1010.67
2017-03-14T08:02:59.390Z,1010.71
2017-03-14T08:04:09.761Z,1010.69
2017-03-14T08:05:20.567Z,1010.75
2017-03-14T08:06:30.549Z,1010.69
2017-03-14T08:07:41.305Z,1010.73
2017-03-14T08:08:52.351Z,1010.77
2017-03-14T08:10:03.122Z,1010.73
2017-03-14T08:11:13.881Z,1010.72
2017-03-14T08:12:24.662Z,1010.81
2017-03-14T08:13:35.434Z,1010.74
2017-03-14T08:14:45.447Z,1010.78
2017-03-14T08:15:56.230Z,1010.79
2017-03-14T08:17:06.598Z,1010.85
2017-03-14T08:18:16.980Z,1010.8
2017-03-14T08:19:27.737Z,1010.79
2017-03-14T08:20:38.496Z,1010.79
2017-03-14T08:21:49.261Z,1010.84
2017-03-14T08:22:59.241Z,1010.84
2017-03-14T08:24:09.601Z,1010.84
2017-03-14T08:25:19.972Z,1010.86
2017-03-14T08:26:30.768Z,1010.88
2017-03-14T08:27:41.140Z,1010.93
2017-03-14T08:28:51.905Z,1010.93
2017-03-14T08:30:02.663Z,1010.94
2017-03-14T08:31:13.464Z,1010.94
2017-03-14T08:32:23.822Z,1010.95
2017-03-14T08:33:34.193Z,1010.97
2017-03-14T08:34:44.945Z,1011.01
2017-03-14T08:35:55.728Z,1011.01
2017-03-14T08:37:06.490Z,1010.95
2017-03-14T08:38:17.279Z,1010.97
2017-03-14T08:39:28.035Z,1010.98
2017-03-14T08:40:38.406Z,1011.05
2017-03-14T08:41:49.211Z,1011.03
2017-03-14T08:42:59.994Z,1010.97
2017-03-14T08:44:10.798Z,1011.02
2017-03-14T08:45:21.554Z,1011.01
2017-03-14T08:46:32.307Z,1011.03
2017-03-14T08:47:42.708Z,1011
2017-03-14T08:48:53.483Z,1011.07
2017-03-14T08:50:03.441Z,1011.01
2017-03-14T08:51:14.195Z,1011.07
2017-03-14T08:52:24.979Z,1011.06
2017-03-14T08:53:35.397Z,1011.09
2017-03-14T08:54:45.770Z,1011.05
2017-03-14T08:55:56.566Z,1010.99
2017-03-14T08:57:07.319Z,1010.96
2017-03-14T08:58:18.112Z,1011
2017-03-14T08:59:28.902Z,1011.04
2017-03-14T09:00:39.669Z,1010.98
2017-03-14T09:01:50.461Z,1011.04
2017-03-14T09:03:01.219Z,1011
2017-03-14T09:04:11.981Z,1010.94
2017-03-14T09:05:22.753Z,1010.99
2017-03-14T09:06:33.525Z,1010.93
2017-03-14T09:07:43.541Z,1011
2017-03-14T09:08:54.300Z,1011.01
2017-03-14T09:10:04.669Z,1010.99
2017-03-14T09:11:15.454Z,1011.04
2017-03-14T09:12:25.824Z,1010.96
2017-03-14T09:13:35.806Z,1010.96
2017-03-14T09:14:46.180Z,1010.99
2017-03-14T09:15:56.938Z,1010.99
2017-03-14T09:17:07.711Z,1011.05
2017-03-14T09:18:18.468Z,1010.95
2017-03-14T09:19:28.833Z,1011
2017-03-14T09:20:39.614Z,1010.95
2017-03-14T09:21:50.420Z,1010.98
2017-03-14T09:23:00.778Z,1011.01
2017-03-14T09:24:11.537Z,1010.99
2017-03-14T09:25:21.898Z,1010.98
2017-03-14T09:27:42.987Z,1010.98
2017-03-14T09:28:53.743Z,1010.91
2017-03-14T09:30:04.548Z,1010.98
2017-03-14T09:31:14.919Z,1010.97
2017-03-14T09:32:25.909Z,1010.99
2017-03-14T09:33:36.303Z,1010.95
2017-03-14T09:34:46.670Z,1010.97
2017-03-14T09:35:57.427Z,1011.01
2017-03-14T09:37:08.569Z,1010.93
2017-03-14T09:38:19.975Z,1011.05
2017-03-14T09:39:30.760Z,1011.01
2017-03-14T09:40:41.542Z,1011
2017-03-14T09:41:52.344Z,1011.01
2017-03-14T09:43:03.165Z,1011.06
2017-03-14T09:44:13.583Z,1010.99
2017-03-14T09:45:24.370Z,1011.01
2017-03-14T09:46:35.053Z,1011.01
2017-03-14T09:47:45.455Z,1011.03
2017-03-14T09:48:56.262Z,1010.99
2017-03-14T09:50:06.644Z,1010.98
2017-03-14T09:51:17.654Z,1011.03
2017-03-14T09:52:32.706Z,1011.02
2017-03-14T09:53:43.576Z,1010.91
2017-03-14T09:54:54.358Z,1011
2017-03-14T09:56:05.138Z,1010.98
2017-03-14T09:57:15.925Z,1011.01
2017-03-14T09:58:26.725Z,1010.92
2017-03-14T09:59:37.105Z,1011.01
2017-03-14T10:00:47.477Z,1010.96
2017-03-14T10:01:58.240Z,1010.95
2017-03-14T10:03:09.011Z,1010.95
2017-03-14T10:04:19.786Z,1010.99
2017-03-14T10:05:29.793Z,1010.99
2017-03-14T10:06:40.586Z,1010.92
2017-03-14T10:07:50.952Z,1010.97
2017-03-14T10:09:01.694Z,1010.89
2017-03-14T10:10:12.438Z,1010.86
2017-03-14T10:11:23.191Z,1010.87
2017-03-14T10:12:34.012Z,1010.88
2017-03-14T10:13:44.762Z,1010.84
2017-03-14T10:14:55.507Z,1010.9
2017-03-14T10:16:06.260Z,1010.88
2017-03-14T10:17:17.022Z,1010.91
2017-03-14T10:18:27.791Z,1010.82
2017-03-14T10:19:38.547Z,1010.91
2017-03-14T10:20:49.304Z,1010.88
2017-03-14T10:22:00.060Z,1010.82
2017-03-14T10:23:11.267Z,1010.84
2017-03-14T10:24:21.606Z,1010.82
2017-03-14T10:25:31.952Z,1010.82
2017-03-14T10:26:42.296Z,1010.8
2017-03-14T10:27:52.639Z,1010.77
2017-03-14T10:29:02.987Z,1010.83
2017-03-14T10:30:13.352Z,1010.77
2017-03-14T10:31:23.704Z,1010.82
2017-03-14T10:32:33.755Z,1010.79
2017-03-14T10:33:44.104Z,1010.77
2017-03-14T10:34:54.451Z,1010.78
2017-03-14T10:36:04.806Z,1010.72
2017-03-14T10:37:15.170Z,1010.84
2017-03-14T10:38:25.511Z,1010.7
2017-03-14T10:39:35.882Z,1010.71
2017-03-14T10:40:46.389Z,1010.65
2017-03-14T10:41:56.729Z,1010.73
2017-03-14T10:43:07.084Z,1010.74
2017-03-14T10:44:17.423Z,1010.73
2017-03-14T10:45:27.766Z,1010.72
2017-03-14T10:46:38.101Z,1010.66
2017-03-14T10:47:48.437Z,1010.64
2017-03-14T10:48:58.499Z,1010.59
2017-03-14T10:50:08.916Z,1010.53
2017-03-14T10:51:19.261Z,1010.55
2017-03-14T10:52:29.621Z,1010.44
2017-03-14T10:53:39.948Z,1010.43
2017-03-14T10:54:50.299Z,1010.48
2017-03-14T10:56:00.629Z,1010.51
2017-03-14T10:57:10.976Z,1010.5
2017-03-14T10:58:21.005Z,1010.44
2017-03-14T10:59:31.335Z,1010.38
2017-03-14T11:00:41.683Z,1010.35
2017-03-14T11:01:52.027Z,1010.37
2017-03-14T11:03:02.386Z,1010.39
2017-03-14T11:04:12.406Z,1010.33
2017-03-14T11:05:22.750Z,1010.3
2017-03-14T11:06:33.089Z,1010.19
2017-03-14T11:07:43.111Z,1010.24
2017-03-14T11:08:53.455Z,1010.25
2017-03-14T11:10:03.801Z,1010.23
2017-03-14T11:11:13.837Z,1010.23
2017-03-14T11:12:24.208Z,1010.14
2017-03-14T11:13:34.584Z,1010.15
2017-03-14T11:14:44.449Z,1010.15
2017-03-14T11:15:54.483Z,1010.05
2017-03-14T11:17:04.196Z,1010.05
2017-03-14T11:18:14.536Z,1010.12
2017-03-14T11:19:24.868Z,1010.11
2017-03-14T11:20:35.207Z,1010.12
2017-03-14T11:21:45.538Z,1010.14
2017-03-14T11:22:55.568Z,1010.07
2017-03-14T11:24:05.588Z,1009.98
2017-03-14T11:25:15.932Z,1010
2017-03-14T11:26:26.311Z,1009.99
2017-03-14T11:27:36.646Z,1010.05
2017-03-14T11:28:46.997Z,1009.96
2017-03-14T11:29:57.334Z,1009.91
2017-03-14T11:31:07.375Z,1009.98
2017-03-14T11:32:17.714Z,1009.88
2017-03-14T11:33:27.755Z,1009.82
2017-03-14T11:34:38.091Z,1009.87
2017-03-14T11:35:48.120Z,1009.81
2017-03-14T11:36:58.470Z,1009.8
2017-03-14T11:38:08.828Z,1009.83
2017-03-14T11:39:18.867Z,1009.87
2017-03-14T11:40:29.216Z,1009.82
2017-03-14T11:41:39.239Z,1009.8
2017-03-14T11:42:49.271Z,1009.75
2017-03-14T11:43:59.328Z,1009.89
2017-03-14T11:45:09.366Z,1009.77
2017-03-14T11:46:19.707Z,1009.66
2017-03-14T11:47:30.031Z,1009.78
2017-03-14T11:48:40.397Z,1009.76
2017-03-14T11:49:50.734Z,1009.62
2017-03-14T11:51:00.758Z,1009.81
2017-03-14T11:52:11.086Z,1009.66
2017-03-14T11:53:21.099Z,1009.69
2017-03-14T11:54:31.431Z,1009.68
2017-03-14T11:55:41.146Z,1009.65
2017-03-14T11:56:51.201Z,1009.71
2017-03-14T11:58:01.250Z,1009.6
2017-03-14T11:59:11.579Z,1009.59
2017-03-14T12:00:21.622Z,1009.58
2017-03-14T12:01:31.971Z,1009.63
2017-03-14T12:02:42.318Z,1009.58
2017-03-14T12:03:52.344Z,1009.58
2017-03-14T12:05:02.695Z,1009.57
2017-03-14T12:06:13.030Z,1009.51
2017-03-14T12:07:23.368Z,1009.46
2017-03-14T12:08:33.707Z,1009.41
2017-03-14T12:09:44.049Z,1009.47
2017-03-14T12:10:54.406Z,1009.45
2017-03-14T12:12:04.747Z,1009.51
2017-03-14T12:13:14.779Z,1009.49
2017-03-14T12:14:25.140Z,1009.44
2017-03-14T12:15:35.496Z,1009.39
2017-03-14T12:16:45.833Z,1009.5
2017-03-14T12:17:55.869Z,1009.53
2017-03-14T12:19:06.228Z,1009.58
2017-03-14T12:20:16.576Z,1009.55
2017-03-14T12:21:26.905Z,1009.48
2017-03-14T12:22:37.259Z,1009.51
2017-03-14T12:23:47.603Z,1009.48
2017-03-14T12:24:57.650Z,1009.46
2017-03-14T12:26:07.991Z,1009.46
2017-03-14T12:27:18.330Z,1009.38
2017-03-14T12:28:28.671Z,1009.45
2017-03-14T12:29:38.704Z,1009.45
2017-03-14T12:30:49.073Z,1009.54
2017-03-14T12:31:59.436Z,1009.49
2017-03-14T12:33:09.530Z,1009.46
2017-03-14T12:34:19.881Z,1009.53
2017-03-14T12:35:30.227Z,1009.54
2017-03-14T12:36:40.576Z,1009.58
2017-03-14T12:37:50.971Z,1009.52
2017-03-14T12:39:01.138Z,1009.5
2017-03-14T12:40:11.181Z,1009.51
2017-03-14T12:41:21.218Z,1009.6
2017-03-14T12:42:31.574Z,1009.58
2017-03-14T12:43:41.629Z,1009.66
2017-03-14T12:44:51.976Z,1009.68
2017-03-14T12:46:01.698Z,1009.59
2017-03-14T12:47:11.725Z,1009.61
2017-03-14T12:48:22.096Z,1009.57
2017-03-14T12:49:32.435Z,1009.54
2017-03-14T12:50:42.498Z,1009.69
2017-03-14T12:51:52.834Z,1009.51
2017-03-14T12:53:03.190Z,1009.69
2017-03-14T12:54:13.520Z,1009.62
2017-03-14T12:55:23.932Z,1009.63
2017-03-14T12:56:33.654Z,1009.6
2017-03-14T12:57:44.002Z,1009.54
2017-03-14T12:58:54.360Z,1009.66
2017-03-14T13:00:04.420Z,1009.54
2017-03-14T13:01:14.757Z,1009.64
2017-03-14T13:02:25.089Z,1009.63
2017-03-14T13:03:35.109Z,1009.57
2017-03-14T13:04:45.470Z,1009.6
2017-03-14T13:05:55.807Z,1009.61
2017-03-14T13:07:06.130Z,1009.55
2017-03-14T13:08:15.843Z,1009.54
2017-03-14T13:09:26.175Z,1009.47
2017-03-14T13:10:36.506Z,1009.49
2017-03-14T13:11:46.241Z,1009.53
2017-03-14T13:12:56.582Z,1009.49
2017-03-14T13:14:06.913Z,1009.63
2017-03-14T13:15:16.950Z,1009.58
2017-03-14T13:16:27.290Z,1009.52
2017-03-14T13:17:37.325Z,1009.59
2017-03-14T13:18:47.041Z,1009.57
2017-03-14T13:19:57.371Z,1009.63
2017-03-14T13:21:07.715Z,1009.55
2017-03-14T13:22:18.067Z,1009.56
2017-03-14T13:23:28.417Z,1009.63
2017-03-14T13:24:38.756Z,1009.57
2017-03-14T13:25:49.092Z,1009.57
2017-03-14T13:26:59.462Z,1009.54
2017-03-14T13:28:09.816Z,1009.58
2017-03-14T13:29:20.160Z,1009.57
2017-03-14T13:30:30.205Z,1009.57
2017-03-14T13:31:40.550Z,1009.55
2017-03-14T13:32:50.903Z,1009.65
2017-03-14T13:34:01.230Z,1009.52
2017-03-14T13:35:11.281Z,1009.47
2017-03-14T13:36:21.303Z,1009.48
2017-03-14T13:37:31.721Z,1009.48
2017-03-14T13:38:42.064Z,1009.51
2017-03-14T13:39:52.419Z,1009.42
2017-03-14T13:41:02.453Z,1009.6
2017-03-14T13:42:12.773Z,1009.64
2017-03-14T13:43:23.112Z,1009.54
2017-03-14T13:44:33.450Z,1009.49
2017-03-14T13:45:43.783Z,1009.52
2017-03-14T13:46:53.496Z,1009.54
2017-03-14T13:48:03.835Z,1009.53
2017-03-14T13:49:13.864Z,1009.56
2017-03-14T13:50:23.898Z,1009.61
2017-03-14T13:51:34.258Z,1009.6
2017-03-14T13:52:44.603Z,1009.56
2017-03-14T13:53:54.310Z,1009.57
2017-03-14T13:55:04.348Z,1009.52
2017-03-14T13:56:14.697Z,1009.5
2017-03-14T13:57:24.743Z,1009.52
2017-03-14T13:58:35.104Z,1009.58
2017-03-14T13:59:45.132Z,1009.5
2017-03-14T14:00:55.154Z,1009.57
2017-03-14T14:02:05.173Z,1009.58
2017-03-14T14:03:15.211Z,1009.49
2017-03-14T14:04:25.262Z,1009.52
2017-03-14T14:05:35.639Z,1009.46
2017-03-14T14:06:46.004Z,1009.55
2017-03-14T14:07:56.340Z,1009.47
2017-03-14T14:09:06.668Z,1009.52
2017-03-14T14:10:16.699Z,1009.52
2017-03-14T14:11:27.044Z,1009.42
2017-03-14T14:12:37.397Z,1009.51
2017-03-14T14:13:47.753Z,1009.6
2017-03-14T14:14:57.793Z,1009.48
2017-03-14T14:16:08.117Z,1009.56
2017-03-14T14:17:18.467Z,1009.53
2017-03-14T14:18:28.807Z,1009.54
2017-03-14T14:19:38.845Z,1009.49
2017-03-14T14:20:49.191Z,1009.54
2017-03-14T14:21:59.561Z,1009.44
2017-03-14T14:23:09.906Z,1009.48
2017-03-14T14:24:20.278Z,1009.47
2017-03-14T14:25:30.297Z,1009.42
2017-03-14T14:26:40.311Z,1009.49
2017-03-14T14:27:50.639Z,1009.41
2017-03-14T14:29:00.976Z,1009.39
2017-03-14T14:30:11.315Z,1009.36
2017-03-14T14:31:21.336Z,1009.39
2017-03-14T14:32:31.683Z,1009.41
2017-03-14T14:33:42.030Z,1009.52
2017-03-14T14:34:52.386Z,1009.54
2017-03-14T14:36:02.411Z,1009.47
2017-03-14T14:37:12.451Z,1009.46
2017-03-14T14:38:22.523Z,1009.5
2017-03-14T14:39:32.604Z,1009.47
2017-03-14T14:40:43.032Z,1009.46
2017-03-14T14:41:53.392Z,1009.45
2017-03-14T14:43:03.790Z,1009.51
2017-03-14T14:44:14.193Z,1009.52
2017-03-14T14:45:24.577Z,1009.45
2017-03-14T14:46:34.994Z,1009.44
2017-03-14T14:47:45.475Z,1009.52